createdAt,value
2022-11-29T00:02:30.025Z,101375.66
2022-11-29T00:06:33.291Z,101366.00
2022-11-29T00:10:38.439Z,101384.13
2022-11-29T00:14:41.742Z,101375.44
2022-11-29T00:18:43.634Z,101384.38
2022-11-29T00:22:45.358Z,101386.19
2022-11-29T00:26:48.142Z,101391.63
2022-11-29T00:30:49.923Z,101390.16
2022-11-29T00:34:52.263Z,101383.44
2022-11-29T00:38:53.986Z,101393.34
2022-11-29T00:42:55.856Z,101398.91
2022-11-29T00:46:57.563Z,101392.41
2022-11-29T00:50:59.641Z,101390.97
2022-11-29T00:55:01.338Z,101394.84
2022-11-29T00:59:03.155Z,101400.53
2022-11-29T01:03:04.926Z,101390.16
2022-11-29T01:07:06.780Z,101394.63
2022-11-29T01:11:21.129Z,101387.00
2022-11-29T01:15:22.981Z,101395.84
2022-11-29T01:19:24.681Z,101405.72
2022-11-29T01:23:27.008Z,101395.25
2022-11-29T01:27:29.742Z,101396.31
2022-11-29T01:31:37.836Z,101399.94
2022-11-29T01:35:39.571Z,101408.22
2022-11-29T01:39:41.296Z,101409.41
2022-11-29T01:44:02.682Z,101409.56
2022-11-29T01:48:04.606Z,101412.19
2022-11-29T01:52:10.718Z,101412.91
2022-11-29T01:56:14.920Z,101415.56
2022-11-29T02:00:19.513Z,101418.34
2022-11-29T02:04:21.434Z,101418.59
2022-11-29T02:08:38.428Z,101419.56
2022-11-29T02:13:13.788Z,101427.75
2022-11-29T02:17:23.950Z,101420.16
2022-11-29T02:21:39.302Z,101423.78
2022-11-29T02:26:11.764Z,101426.44
2022-11-29T02:30:21.856Z,101435.31
2022-11-29T02:34:42.161Z,101431.97
2022-11-29T02:39:11.991Z,101434.72
2022-11-29T02:43:31.688Z,101453.75
2022-11-29T02:47:51.921Z,101453.16
2022-11-29T02:52:11.943Z,101475.06
2022-11-29T02:56:27.673Z,101470.59
2022-11-29T03:00:30.807Z,101473.16
2022-11-29T03:04:44.401Z,101474.59
2022-11-29T03:08:50.323Z,101485.69
2022-11-29T03:12:53.935Z,101481.34
2022-11-29T03:17:04.333Z,101488.34
2022-11-29T03:21:17.871Z,101488.59
2022-11-29T03:25:26.726Z,101500.88
2022-11-29T03:29:40.617Z,101494.59
2022-11-29T03:34:00.914Z,101500.03
2022-11-29T03:38:20.906Z,101500.66
2022-11-29T03:42:48.796Z,101507.41
2022-11-29T03:46:57.568Z,101506.19
2022-11-29T03:51:38.849Z,101506.06
2022-11-29T03:55:55.752Z,101520.31
2022-11-29T04:00:13.204Z,101510.66
2022-11-29T04:04:43.226Z,101513.94
2022-11-29T04:09:12.768Z,101520.78
2022-11-29T04:13:45.252Z,101531.28
2022-11-29T04:17:58.818Z,101535.75
2022-11-29T04:22:09.206Z,101534.88
2022-11-29T04:26:21.341Z,101532.22
2022-11-29T04:30:25.173Z,101529.56
2022-11-29T04:34:58.947Z,101539.34
2022-11-29T04:39:21.888Z,101538.50
2022-11-29T04:43:50.553Z,101544.66
2022-11-29T04:48:19.013Z,101548.03
2022-11-29T04:52:39.245Z,101552.28
2022-11-29T04:56:46.652Z,101555.84
2022-11-29T05:01:02.241Z,101559.25
2022-11-29T05:05:25.215Z,101562.13
2022-11-29T05:10:06.255Z,101564.78
2022-11-29T05:14:27.478Z,101577.06
2022-11-29T05:18:53.698Z,101580.47
2022-11-29T05:23:22.913Z,101578.56
2022-11-29T05:27:39.835Z,101584.94
2022-11-29T05:31:56.982Z,101595.53
2022-11-29T05:36:05.304Z,101597.22
2022-11-29T05:40:25.593Z,101596.72
2022-11-29T05:44:34.419Z,101605.53
2022-11-29T05:48:49.568Z,101598.50
2022-11-29T05:53:00.198Z,101603.59
2022-11-29T05:57:19.880Z,101616.66
2022-11-29T06:01:26.493Z,101633.06
2022-11-29T06:05:46.954Z,101634.75
2022-11-29T06:10:02.002Z,101625.84
2022-11-29T06:14:13.934Z,101641.75
2022-11-29T06:18:37.443Z,101643.66
2022-11-29T06:22:41.743Z,101656.44
2022-11-29T06:27:29.644Z,101662.91
2022-11-29T06:31:44.566Z,101666.63
2022-11-29T06:36:14.559Z,101680.63
2022-11-29T06:40:16.724Z,101686.75
2022-11-29T06:44:18.694Z,101683.13
2022-11-29T06:48:25.760Z,101685.78
2022-11-29T06:52:33.153Z,101693.75
2022-11-29T06:57:00.610Z,101697.38
2022-11-29T07:01:12.209Z,101699.06
2022-11-29T07:05:23.651Z,101701.59
2022-11-29T07:09:34.721Z,101713.28
2022-11-29T07:13:36.641Z,101720.75
2022-11-29T07:17:47.802Z,101714.47
2022-11-29T07:22:08.936Z,101725.91
2022-11-29T07:26:21.917Z,101728.56
2022-11-29T07:30:29.758Z,101728.56
2022-11-29T07:34:58.647Z,101735.69
2022-11-29T07:39:21.936Z,101748.09
2022-11-29T07:43:47.531Z,101747.88
2022-11-29T07:47:50.286Z,101753.06
2022-11-29T07:51:54.648Z,101764.41
2022-11-29T07:55:57.740Z,101765.25
2022-11-29T07:59:59.538Z,101768.84
2022-11-29T08:04:01.272Z,101768.97
2022-11-29T08:08:03.251Z,101773.50
2022-11-29T08:12:05.206Z,101772.59
2022-11-29T08:16:07.200Z,101775.44
2022-11-29T08:20:10.124Z,101786.16
2022-11-29T08:24:12.021Z,101786.06
2022-11-29T08:28:14.348Z,101789.44
2022-11-29T08:32:16.108Z,101796.44
2022-11-29T08:36:19.954Z,101804.41
2022-11-29T08:40:22.200Z,101805.25
2022-11-29T08:44:23.915Z,101807.69
2022-11-29T08:48:25.882Z,101807.78
2022-11-29T08:52:54.062Z,101801.53
2022-11-29T08:57:38.577Z,101811.09
2022-11-29T09:01:19.199Z,101820.50
2022-11-29T09:05:21.122Z,101820.06
2022-11-29T09:09:23.057Z,101819.94
2022-11-29T09:13:24.847Z,101825.25
2022-11-29T09:17:26.913Z,101824.94
2022-11-29T09:21:30.626Z,101829.91
2022-11-29T09:25:32.459Z,101838.56
2022-11-29T09:29:34.139Z,101840.28
2022-11-29T09:33:36.277Z,101847.06
2022-11-29T09:37:41.582Z,101856.38
2022-11-29T09:42:09.846Z,101856.78
2022-11-29T09:46:30.559Z,101863.53
2022-11-29T09:50:48.350Z,101867.31
2022-11-29T09:55:07.656Z,101871.97
2022-11-29T09:59:16.445Z,101870.53
2022-11-29T10:03:31.516Z,101871.78
2022-11-29T10:07:37.414Z,101879.28
2022-11-29T10:12:01.035Z,101880.63
2022-11-29T10:16:16.163Z,101884.97
2022-11-29T10:20:24.760Z,101875.31
2022-11-29T10:24:28.666Z,101883.91
2022-11-29T10:28:33.647Z,101876.66
2022-11-29T10:32:35.331Z,101884.28
2022-11-29T10:36:42.548Z,101888.28
2022-11-29T10:40:49.339Z,101884.31
2022-11-29T10:44:51.429Z,101884.19
2022-11-29T10:48:53.617Z,101881.94
2022-11-29T10:53:30.860Z,101878.78
2022-11-29T10:57:32.536Z,101889.78
2022-11-29T11:01:38.599Z,101881.00
2022-11-29T11:05:40.423Z,101882.22
2022-11-29T11:09:48.640Z,101889.97
2022-11-29T11:14:17.403Z,101896.97
2022-11-29T11:18:21.869Z,101890.81
2022-11-29T11:22:25.165Z,101885.63
2022-11-29T11:26:27.724Z,101899.13
2022-11-29T11:30:29.660Z,101893.31
2022-11-29T11:34:37.374Z,101898.16
2022-11-29T11:38:42.198Z,101901.16
2022-11-29T11:42:44.272Z,101890.31
2022-11-29T11:46:49.567Z,101902.03
2022-11-29T11:50:54.278Z,101908.19
2022-11-29T11:55:02.208Z,101902.75
2022-11-29T11:59:04.476Z,101911.25
2022-11-29T12:03:18.071Z,101906.16
2022-11-29T12:08:06.178Z,101912.22
2022-11-29T12:12:21.332Z,101921.88
2022-11-29T12:16:29.349Z,101928.78
2022-11-29T12:20:59.671Z,101926.22
2022-11-29T12:25:05.692Z,101930.22
2022-11-29T12:29:15.258Z,101934.69
2022-11-29T12:33:38.363Z,101931.53
2022-11-29T12:38:17.906Z,101946.28
2022-11-29T12:42:36.368Z,101945.56
2022-11-29T12:46:38.651Z,101954.50
2022-11-29T12:50:46.557Z,101954.63
2022-11-29T12:55:06.322Z,101963.66
2022-11-29T12:59:19.890Z,101963.34
2022-11-29T13:03:31.943Z,101966.13
2022-11-29T13:07:39.425Z,101963.59
2022-11-29T13:11:55.582Z,101955.88
2022-11-29T13:16:11.982Z,101952.84
2022-11-29T13:20:59.788Z,101962.25
2022-11-29T13:25:05.986Z,101968.56
2022-11-29T13:29:15.611Z,101957.56
2022-11-29T13:33:28.099Z,101960.94
2022-11-29T13:37:45.570Z,101959.84
2022-11-29T13:42:22.286Z,101949.09
2022-11-29T13:46:54.788Z,101957.19
2022-11-29T13:50:57.796Z,101953.34
2022-11-29T13:55:11.829Z,101958.66
2022-11-29T13:59:21.449Z,101954.06
2022-11-29T14:03:23.196Z,101954.06
2022-11-29T14:07:25.098Z,101959.38
2022-11-29T14:11:29.590Z,101959.38
2022-11-29T14:15:33.361Z,101960.22
2022-11-29T14:19:36.897Z,101961.06
2022-11-29T14:23:43.840Z,101966.38
2022-11-29T14:27:46.852Z,101969.88
2022-11-29T14:31:51.464Z,101985.13
2022-11-29T14:36:28.520Z,101989.09
2022-11-29T14:40:42.246Z,101987.31
2022-11-29T14:45:01.119Z,101990.69
2022-11-29T14:49:05.583Z,101993.25
2022-11-29T14:53:29.251Z,101993.25
2022-11-29T14:57:49.951Z,101994.94
2022-11-29T15:01:52.635Z,101996.50
2022-11-29T15:06:25.725Z,102007.88
2022-11-29T15:10:31.136Z,102008.00
2022-11-29T15:14:54.130Z,102007.03
2022-11-29T15:18:59.517Z,102007.25
2022-11-29T15:23:09.810Z,102013.66
2022-11-29T15:27:12.960Z,102016.47
2022-11-29T15:31:19.278Z,102020.31
2022-11-29T15:35:21.263Z,102016.06
2022-11-29T15:39:29.253Z,102018.97
2022-11-29T15:43:37.702Z,102024.41
2022-11-29T15:47:39.397Z,102018.50
2022-11-29T15:51:41.763Z,102024.03
2022-11-29T15:55:47.639Z,102024.28
2022-11-29T15:59:59.813Z,102020.28
2022-11-29T16:04:02.204Z,102033.94
2022-11-29T16:08:08.177Z,102032.47
2022-11-29T16:12:13.712Z,102032.09
2022-11-29T16:16:24.551Z,102034.22
2022-11-29T16:20:31.329Z,102033.75
2022-11-29T16:24:34.567Z,102031.53
2022-11-29T16:28:44.312Z,102037.34
2022-11-29T16:32:59.634Z,102034.41
2022-11-29T16:37:06.665Z,102034.00
2022-11-29T16:41:32.085Z,102036.25
2022-11-29T16:45:36.555Z,102037.44
2022-11-29T16:49:38.363Z,102038.72
2022-11-29T16:53:47.928Z,102042.78
2022-11-29T16:57:49.829Z,102039.00
2022-11-29T17:01:52.555Z,102035.94
2022-11-29T17:05:54.422Z,102044.59
2022-11-29T17:09:57.210Z,102051.19
2022-11-29T17:13:59.045Z,102053.53
2022-11-29T17:18:00.896Z,102062.69
2022-11-29T17:22:03.725Z,102056.00
2022-11-29T17:26:05.598Z,102062.38
2022-11-29T17:30:08.539Z,102069.06
2022-11-29T17:34:10.417Z,102069.50
2022-11-29T17:38:12.192Z,102072.47
2022-11-29T17:42:13.930Z,102070.25
2022-11-29T17:46:20.995Z,102081.19
2022-11-29T17:50:22.700Z,102080.53
2022-11-29T17:54:24.627Z,102086.69
2022-11-29T17:58:26.399Z,102084.78
2022-11-29T18:02:28.155Z,102089.03
2022-11-29T18:06:34.398Z,102090.53
2022-11-29T18:10:36.435Z,102091.16
2022-11-29T18:14:39.084Z,102090.97
2022-11-29T18:18:41.314Z,102098.91
2022-11-29T18:22:43.222Z,102106.88
2022-11-29T18:26:44.997Z,102111.94
2022-11-29T18:30:46.810Z,102110.25
2022-11-29T18:34:48.851Z,102104.94
2022-11-29T18:38:55.807Z,102105.78
2022-11-29T18:42:57.461Z,102114.72
2022-11-29T18:46:59.540Z,102118.34
2022-11-29T18:51:05.343Z,102121.00
2022-11-29T18:55:07.405Z,102125.47
2022-11-29T18:59:18.194Z,102127.03
2022-11-29T19:03:19.906Z,102137.44
2022-11-29T19:07:21.650Z,102127.66
2022-11-29T19:11:26.033Z,102142.41
2022-11-29T19:15:27.720Z,102135.22
2022-11-29T19:19:29.457Z,102140.41
2022-11-29T19:23:31.199Z,102139.56
2022-11-29T19:27:32.933Z,102139.56
2022-11-29T19:31:34.603Z,102139.47
2022-11-29T19:35:36.510Z,102141.25
2022-11-29T19:39:38.985Z,102146.34
2022-11-29T19:43:41.428Z,102144.66
2022-11-29T19:47:43.141Z,102142.00
2022-11-29T19:51:44.800Z,102143.81
2022-11-29T19:55:46.581Z,102149.31
2022-11-29T19:59:48.488Z,102143.38
2022-11-29T20:03:50.677Z,102158.47
2022-11-29T20:07:52.446Z,102155.03
2022-11-29T20:11:54.217Z,102153.16
2022-11-29T20:16:01.876Z,102160.78
2022-11-29T20:20:04.029Z,102162.47
2022-11-29T20:24:07.851Z,102169.38
2022-11-29T20:28:09.574Z,102173.00
2022-11-29T20:32:11.364Z,102174.59
2022-11-29T20:36:31.339Z,102181.59
2022-11-29T20:40:51.625Z,102179.69
2022-11-29T20:45:01.912Z,102184.78
2022-11-29T20:49:06.670Z,102180.97
2022-11-29T20:53:14.587Z,102191.16
2022-11-29T20:57:16.258Z,102194.34
2022-11-29T21:01:18.102Z,102192.25
2022-11-29T21:05:19.830Z,102192.00
2022-11-29T21:09:21.562Z,102192.63
2022-11-29T21:13:23.838Z,102188.94
2022-11-29T21:17:31.873Z,102188.81
2022-11-29T21:21:46.322Z,102189.69
2022-11-29T21:25:52.964Z,102184.38
2022-11-29T21:29:55.385Z,102198.56
2022-11-29T21:33:57.606Z,102189.25
2022-11-29T21:38:01.806Z,102192.00
2022-11-29T21:42:03.821Z,102197.53
2022-11-29T21:46:05.636Z,102193.94
2022-11-29T21:50:08.005Z,102192.00
2022-11-29T21:54:09.757Z,102192.00
2022-11-29T21:58:11.488Z,102188.41
2022-11-29T22:02:14.407Z,102194.44
2022-11-29T22:06:18.731Z,102192.75
2022-11-29T22:10:20.402Z,102199.75
2022-11-29T22:14:22.132Z,102188.19
2022-11-29T22:18:27.114Z,102197.72
2022-11-29T22:22:28.905Z,102201.25
2022-11-29T22:26:30.733Z,102196.69
2022-11-29T22:30:32.746Z,102193.06
2022-11-29T22:34:34.508Z,102203.81
2022-11-29T22:38:36.917Z,102210.06
2022-11-29T22:42:38.744Z,102205.69
2022-11-29T22:46:41.403Z,102205.91
2022-11-29T22:50:43.149Z,102214.00
2022-11-29T22:54:45.217Z,102210.59
2022-11-29T22:58:47.688Z,102207.28
2022-11-29T23:02:49.325Z,102211.75
2022-11-29T23:06:51.023Z,102220.69
2022-11-29T23:10:57.224Z,102218.03
2022-11-29T23:14:59.084Z,102219.97
2022-11-29T23:19:01.364Z,102220.91
2022-11-29T23:23:03.186Z,102220.03
2022-11-29T23:27:05.229Z,102225.28
2022-11-29T23:31:06.968Z,102222.50
2022-11-29T23:35:08.970Z,102222.38
2022-11-29T23:39:10.879Z,102229.41
2022-11-29T23:43:12.642Z,102226.53
2022-11-29T23:47:14.370Z,102226.22
2022-11-29T23:51:17.256Z,102232.19
2022-11-29T23:55:19.955Z,102235.34
2022-11-29T23:59:21.710Z,102235.13
